CAMANCHE RESERVOIR (CMN)

Elevation: 236' · MOKELUMNE R basin · Operator: East Bay Municipal Utility District

Provisional data, subject to change.
Query executed Sunday at 16:10:58   clock

Select a sensor type for a plot of data.
Note: Reservoir Flows are daily averages.

Earlier

Date RES ELE    STORAGE    RES CHG    TOC STO    ABV TOC    OUTFLOW    INFLOW   
 FEET   AF   AF   AF   AF   CFS   CFS  
06/06/2015 178.25 101930 -1408 365184 -- 785 11
06/07/2015 177.76 100310 -1630 364324 -264014 850 11
06/08/2015 177.47 99360 -949 364601 -265241 1027 511
06/09/2015 177.07 98060 -1301 365040 -266980 1201 512
06/10/2015 176.69 96830 -1211 365420 -268590 1150 503
06/11/2015 176.49 96190 -612 365486 -269296 873 512
06/12/2015 176.42 95970 -217 365926 -- 601 522
06/13/2015 176.06 94830 -1162 365146 -- 601 11
06/14/2015 175.66 93570 -1155 364324 -270754 600 11
06/15/2015 175.62 93450 -130 364733 -271283 601 527
06/16/2015 175.55 93227 -223 365317 -- 601 528
06/17/2015 175.48 93007 -220 365984 -273004 600 540
06/18/2015 175.42 92825 -182 366636 -273890 601 529
06/19/2015 175.48 93034 209 367801 -- 600 795
06/20/2015 175.13 91929 -1105 367421 -- 600 0
06/21/2015 174.75 90762 -1167 367115 -276445 600 0
06/22/2015 174.82 90980 225 368260 -277280 600 772
06/23/2015 174.90 91220 251 369542 -278322 602 777
06/24/2015 175.00 91530 337 370959 -279429 600 777
06/25/2015 175.10 91840 266 372446 -280605 600 774
06/26/2015 175.17 92050 252 373750 -- 600 787
06/27/2015 175.11 91864 -1153 373569 -- 600 11
06/28/2015 174.46 89890 -1041 373373 -- 541 11
06/29/2015 174.18 89040 -851 373368 -284328 442 11
06/30/2015 174.19 89070 80 373863 -284793 344 395
07/01/2015 174.50 90010 961 374936 -284926 273 786
07/02/2015 174.81 90947 937 -- -- 250 809
07/03/2015 174.63 90412 -535 -- -- 251 0
07/04/2015 174.46 89898 -514 -- -- 250 0
07/05/2015 -- -- -- -- -- -- --

Later | Latest

Warning! This data is preliminary and subject to revision.

Show CMN Map | Plot CMN Data | 1 Month CMN Data | Real-Time CMN Data | CMN Info